Time;durP1;ratioP1;P1;durP2;ratioP2;P2;SDS_P1;SDS_P2;PMS_P1;PMS_P2;Temp;Humidity;BMP_temperature;BMP_pressure;BME280_temperature;BME280_humidity;BME280_pressure;Samples;Min_cycle;Max_cycle;Signal;HPM_P1;HPM_P2
2022/12/11 05:51:49;;;;;;;;;8.20;8.20;;;;;;;;5259890;27;13436;-70
2022/12/11 05:54:21;;;;;;;;;7.40;7.40;;;;;;;;5262759;28;8774;-74
2022/12/11 05:57:11;;;;;;;;;6.80;6.80;;;;;;;;5243504;28;8793;-71
2022/12/11 05:59:42;;;;;;;;;7.40;7.40;;;;;;;;5212998;28;8785;-73
2022/12/11 06:02:13;;;;;;;;;6.60;6.60;;;;;;;;5208736;28;8787;-72
2022/12/11 06:05:03;;;;;;;;;4.00;4.00;;;;;;;;5242542;28;8785;-71
2022/12/11 06:07:34;;;;;;;;;7.00;7.00;;;;;;;;5208273;28;8832;-73
2022/12/11 06:10:06;;;;;;;;;4.80;4.80;;;;;;;;5229176;28;8921;-71
2022/12/11 06:12:56;;;;;;;;;4.40;4.40;;;;;;;;5241155;28;9567;-71
2022/12/11 06:15:27;;;;;;;;;7.00;7.00;;;;;;;;5240885;28;8793;-72
2022/12/11 06:17:58;;;;;;;;;22.80;22.20;;;;;;;;5224005;28;8855;-71
2022/12/11 06:20:30;;;;;;;;;14.60;13.80;;;;;;;;5240172;28;8809;-70
2022/12/11 06:23:01;;;;;;;;;10.00;10.00;;;;;;;;5240995;28;8809;-69
2022/12/11 06:25:33;;;;;;;;;10.40;10.00;;;;;;;;5224436;28;8817;-71
2022/12/11 06:28:22;;;;;;;;;25.00;25.00;;;;;;;;5240879;28;8793;-71
2022/12/11 06:30:53;;;;;;;;;16.40;16.20;;;;;;;;5257590;28;9583;-73
2022/12/11 06:33:25;;;;;;;;;25.00;24.20;;;;;;;;5241215;28;8769;-72
2022/12/11 06:35:56;;;;;;;;;13.00;12.80;;;;;;;;5223862;28;8797;-71
2022/12/11 06:38:27;;;;;;;;;24.20;24.00;;;;;;;;5259523;28;8831;-71
2022/12/11 06:40:58;;;;;;;;;16.80;15.20;;;;;;;;5262770;28;8791;-70
2022/12/11 06:43:33;;;;;;;;;18.80;18.80;;;;;;;;5228204;28;8809;-71
2022/12/11 06:46:05;;;;;;;;;26.80;26.20;;;;;;;;5243149;28;9604;-70
2022/12/11 06:48:37;;;;;;;;;18.60;15.40;;;;;;;;5208562;28;8877;-70
2022/12/11 06:51:26;;;;;;;;;19.60;17.40;;;;;;;;5259048;28;8871;-71
2022/12/11 06:53:57;;;;;;;;;25.40;23.80;;;;;;;;5262958;28;8803;-71
2022/12/11 06:56:28;;;;;;;;;21.25;21.25;;;;;;;;5263005;28;8801;-70
2022/12/11 06:58:59;;;;;;;;;22.50;21.00;;;;;;;;5258227;28;11577;-71
2022/12/11 07:01:31;;;;;;;;;25.80;23.20;;;;;;;;5256305;28;12248;-75
2022/12/11 07:04:02;;;;;;;;;17.20;17.20;;;;;;;;5247721;28;8787;-72
2022/12/11 07:06:33;;;;;;;;;21.80;21.80;;;;;;;;5241294;28;8803;-71
2022/12/11 07:09:04;;;;;;;;;24.40;24.40;;;;;;;;5232182;28;8904;-71
2022/12/11 07:11:36;;;;;;;;;31.40;31.00;;;;;;;;5235937;28;8818;-71
2022/12/11 07:14:07;;;;;;;;;23.60;22.80;;;;;;;;5248757;28;8811;-71
2022/12/11 07:16:38;;;;;;;;;40.60;39.40;;;;;;;;5247563;28;8876;-71
2022/12/11 07:19:10;;;;;;;;;33.80;31.00;;;;;;;;5244937;28;8814;-71
2022/12/11 07:21:41;;;;;;;;;24.60;22.00;;;;;;;;5231274;28;8803;-71
2022/12/11 07:24:12;;;;;;;;;30.40;30.00;;;;;;;;5214235;28;8860;-71
2022/12/11 07:26:44;;;;;;;;;24.80;24.80;;;;;;;;5247331;28;8783;-72
2022/12/11 07:29:15;;;;;;;;;31.20;26.80;;;;;;;;5220186;28;8848;-71
2022/12/11 07:31:46;;;;;;;;;22.80;22.80;;;;;;;;5252994;28;8815;-71
2022/12/11 07:34:36;;;;;;;;;24.60;23.20;;;;;;;;5233319;28;9580;-70
2022/12/11 07:37:08;;;;;;;;;34.60;30.00;;;;;;;;5247349;28;8779;-70
2022/12/11 07:39:39;;;;;;;;;12.00;10.40;;;;;;;;5257897;28;9550;-70
2022/12/11 07:42:10;;;;;;;;;21.75;19.50;;;;;;;;5249530;28;8815;-70
2022/12/11 07:44:41;;;;;;;;;22.20;21.00;;;;;;;;5251479;28;11609;-70
2022/12/11 07:47:12;;;;;;;;;16.60;15.00;;;;;;;;5268027;28;8785;-71
2022/12/11 07:49:43;;;;;;;;;14.00;13.80;;;;;;;;5258345;28;8913;-73
2022/12/11 07:52:34;;;;;;;;;13.00;13.00;;;;;;;;5246982;28;8860;-73
2022/12/11 07:55:05;;;;;;;;;21.80;21.20;;;;;;;;5213558;28;8868;-71
2022/12/11 07:57:36;;;;;;;;;20.60;20.60;;;;;;;;5246557;28;8795;-71
2022/12/11 08:00:07;;;;;;;;;17.40;17.40;;;;;;;;5238748;28;8822;-72
2022/12/11 08:02:43;;;;;;;;;19.80;18.60;;;;;;;;5267686;28;8776;-70
2022/12/11 08:05:14;;;;;;;;;19.20;19.20;;;;;;;;5267814;28;8784;-72
2022/12/11 08:07:45;;;;;;;;;20.40;19.40;;;;;;;;5267548;28;8869;-71
2022/12/11 08:10:17;;;;;;;;;22.80;22.40;;;;;;;;5259134;28;8855;-72
2022/12/11 08:12:48;;;;;;;;;22.40;22.40;;;;;;;;5237790;28;8787;-72
2022/12/11 08:15:19;;;;;;;;;31.00;30.00;;;;;;;;5229533;28;8783;-72
2022/12/11 08:17:49;;;;;;;;;44.75;39.25;;;;;;;;5213386;28;8787;-72
2022/12/11 08:20:21;;;;;;;;;30.00;27.20;;;;;;;;5246528;28;9495;-72
2022/12/11 08:22:52;;;;;;;;;14.40;14.40;;;;;;;;5247352;28;8803;-71
2022/12/11 08:25:23;;;;;;;;;23.00;19.20;;;;;;;;5213525;28;8787;-71
2022/12/11 08:27:53;;;;;;;;;20.50;19.75;;;;;;;;5247444;28;8779;-72
2022/12/11 08:30:24;;;;;;;;;14.40;13.40;;;;;;;;5249305;28;8804;-72
2022/12/11 08:32:56;;;;;;;;;22.20;21.80;;;;;;;;5242035;28;8842;-71
2022/12/11 08:35:26;;;;;;;;;32.40;31.60;;;;;;;;5212883;28;8803;-72
2022/12/11 08:37:57;;;;;;;;;48.00;46.00;;;;;;;;5229616;28;8787;-72
2022/12/11 08:40:28;;;;;;;;;36.50;33.50;;;;;;;;5245731;28;8807;-71
2022/12/11 08:43:17;;;;;;;;;24.60;24.60;;;;;;;;5256607;28;11535;-70
2022/12/11 08:45:48;;;;;;;;;21.75;21.25;;;;;;;;5266769;28;8772;-70
2022/12/11 08:48:39;;;;;;;;;24.40;23.20;;;;;;;;5267360;28;8791;-70
2022/12/11 08:51:11;;;;;;;;;28.20;28.20;;;;;;;;5247502;28;9022;-70
2022/12/11 08:54:01;;;;;;;;;25.80;24.80;;;;;;;;5252353;28;9522;-68
2022/12/11 08:56:31;;;;;;;;;20.75;20.50;;;;;;;;5266812;28;8761;-70
2022/12/11 08:59:05;;;;;;;;;20.00;20.00;;;;;;;;5266629;28;11509;-69
2022/12/11 09:01:36;;;;;;;;;43.80;42.60;;;;;;;;5249200;28;11429;-70
2022/12/11 09:04:06;;;;;;;;;16.60;15.60;;;;;;;;5233035;28;8823;-70
2022/12/11 09:06:37;;;;;;;;;39.25;36.75;;;;;;;;5264907;28;8914;-70
2022/12/11 09:09:27;;;;;;;;;50.00;46.40;;;;;;;;5263644;28;11559;-70
2022/12/11 09:12:03;;;;;;;;;31.25;30.50;;;;;;;;5220907;28;8775;-70
2022/12/11 09:14:39;;;;;;;;;26.20;25.80;;;;;;;;5245961;28;8785;-69
2022/12/11 09:17:15;;;;;;;;;17.00;17.00;;;;;;;;5246486;28;8795;-70
2022/12/11 09:20:05;;;;;;;;;11.60;11.60;;;;;;;;5257368;28;8788;-72
2022/12/11 09:22:36;;;;;;;;;17.40;13.40;;;;;;;;5249539;28;8769;-70
2022/12/11 09:25:08;;;;;;;;;9.50;9.50;;;;;;;;5267332;28;8797;-72
2022/12/11 09:27:39;;;;;;;;;18.60;18.00;;;;;;;;5265999;28;11455;-70
2022/12/11 09:30:10;;;;;;;;;25.20;24.40;;;;;;;;5265928;28;8827;-71
2022/12/11 09:32:41;;;;;;;;;27.40;26.20;;;;;;;;5266761;28;8923;-71
2022/12/11 09:35:30;;;;;;;;;40.60;39.20;;;;;;;;5249593;28;8921;-71
2022/12/11 09:38:01;;;;;;;;;23.00;21.50;;;;;;;;5228396;28;8933;-70
2022/12/11 09:40:50;;;;;;;;;21.40;21.20;;;;;;;;5264015;28;11444;-71
2022/12/11 09:43:39;;;;;;;;;21.80;20.60;;;;;;;;5249292;28;8801;-72
2022/12/11 09:46:12;;;;;;;;;21.60;21.60;;;;;;;;5248998;28;8780;-71
2022/12/11 09:48:48;;;;;;;;;33.20;29.40;;;;;;;;5232491;28;8772;-70
2022/12/11 09:51:33;;;;;;;;;9.80;9.60;;;;;;;;5232297;28;8816;-70
2022/12/11 09:54:22;;;;;;;;;17.20;17.20;;;;;;;;5266455;28;8797;-71
2022/12/11 09:57:17;;;;;;;;;16.00;16.00;;;;;;;;5256053;28;9572;-72
2022/12/11 10:00:01;;;;;;;;;17.40;14.40;;;;;;;;5228716;28;8804;-72
2022/12/11 10:02:45;;;;;;;;;26.00;25.20;;;;;;;;5244558;28;8791;-71
2022/12/11 10:05:25;;;;;;;;;25.80;25.80;;;;;;;;5246008;28;8809;-72
2022/12/11 10:08:33;;;;;;;;;18.80;18.40;;;;;;;;5272002;28;8817;-71
2022/12/11 10:11:18;;;;;;;;;24.00;24.00;;;;;;;;5286563;28;8870;-71
2022/12/11 10:13:55;;;;;;;;;21.00;20.60;;;;;;;;5265892;28;8892;-71
2022/12/11 10:16:36;;;;;;;;;35.60;33.00;;;;;;;;5252305;28;9542;-71
2022/12/11 10:19:18;;;;;;;;;34.20;30.40;;;;;;;;5251324;28;8804;-71
2022/12/11 10:21:51;;;;;;;;;22.00;22.00;;;;;;;;5239125;28;8859;-71
2022/12/11 10:24:31;;;;;;;;;20.40;20.40;;;;;;;;5252938;28;9525;-73
2022/12/11 10:27:12;;;;;;;;;17.20;15.80;;;;;;;;5243068;28;9604;-70
2022/12/11 10:30:20;;;;;;;;;28.20;28.20;;;;;;;;5246115;28;8818;-71
2022/12/11 10:33:00;;;;;;;;;23.80;22.60;;;;;;;;5244822;28;8773;-70
2022/12/11 10:35:37;;;;;;;;;31.80;31.00;;;;;;;;5244660;28;8786;-70
2022/12/11 10:38:28;;;;;;;;;21.20;21.20;;;;;;;;5235890;28;8787;-70
2022/12/11 10:41:20;;;;;;;;;20.40;19.40;;;;;;;;5214938;28;8805;-70
2022/12/11 10:43:52;;;;;;;;;10.00;10.00;;;;;;;;5263247;28;9505;-70
2022/12/11 10:46:24;;;;;;;;;11.60;11.60;;;;;;;;5249615;28;8917;-70
2022/12/11 10:49:22;;;;;;;;;19.00;19.00;;;;;;;;5249740;28;8851;-69
2022/12/11 10:51:53;;;;;;;;;20.20;20.20;;;;;;;;5231621;28;8819;-69
2022/12/11 10:54:28;;;;;;;;;30.20;28.40;;;;;;;;5214910;28;8852;-69
2022/12/11 10:57:00;;;;;;;;;23.80;23.80;;;;;;;;5231183;28;8783;-71
2022/12/11 10:59:34;;;;;;;;;21.20;20.80;;;;;;;;5248965;28;8767;-71
2022/12/11 11:02:14;;;;;;;;;21.20;21.20;;;;;;;;5248429;28;8793;-70
2022/12/11 11:04:46;;;;;;;;;13.40;13.40;;;;;;;;5248282;28;8845;-70
2022/12/11 11:07:22;;;;;;;;;14.20;13.80;;;;;;;;5241206;28;8827;-71
2022/12/11 11:10:23;;;;;;;;;16.60;16.60;;;;;;;;5249108;28;8827;-71
2022/12/11 11:12:58;;;;;;;;;17.20;17.20;;;;;;;;5227186;28;8805;-70
2022/12/11 11:15:29;;;;;;;;;13.40;13.40;;;;;;;;5267932;28;8823;-69
2022/12/11 11:18:25;;;;;;;;;30.80;28.80;;;;;;;;5253833;28;9487;-69
2022/12/11 11:20:56;;;;;;;;;13.00;13.00;;;;;;;;5267198;28;8811;-70
2022/12/11 11:23:45;;;;;;;;;28.40;28.40;;;;;;;;5268238;28;8760;-70
2022/12/11 11:26:17;;;;;;;;;43.75;38.50;;;;;;;;5268489;28;8800;-71
2022/12/11 11:29:21;;;;;;;;;31.60;29.60;;;;;;;;5254459;28;12320;-70
2022/12/11 11:32:16;;;;;;;;;40.80;36.00;;;;;;;;5251476;28;8826;-70
2022/12/11 11:34:47;;;;;;;;;86.20;63.60;;;;;;;;5230837;28;8810;-68
2022/12/11 11:37:24;;;;;;;;;26.60;25.00;;;;;;;;5230382;28;8921;-69
2022/12/11 11:39:56;;;;;;;;;43.60;41.80;;;;;;;;5247425;28;8790;-71
2022/12/11 11:42:35;;;;;;;;;30.00;27.20;;;;;;;;5230482;28;9667;-69
2022/12/11 11:45:15;;;;;;;;;60.00;50.80;;;;;;;;5230580;28;8799;-70
2022/12/11 11:48:04;;;;;;;;;28.00;26.40;;;;;;;;5247140;28;9564;-70
2022/12/11 11:50:36;;;;;;;;;32.00;28.40;;;;;;;;5248189;28;9671;-71
2022/12/11 11:53:36;;;;;;;;;20.00;17.20;;;;;;;;5259851;28;8883;-71
2022/12/11 11:56:16;;;;;;;;;74.60;55.00;;;;;;;;5248623;28;9613;-70
2022/12/11 11:59:06;;;;;;;;;53.60;48.40;;;;;;;;5249845;28;8830;-71
2022/12/11 12:01:37;;;;;;;;;37.40;33.40;;;;;;;;5233502;28;8915;-71
2022/12/11 12:04:30;;;;;;;;;24.40;24.40;;;;;;;;5268428;28;8857;-71
2022/12/11 12:07:23;;;;;;;;;18.40;18.40;;;;;;;;5261105;28;8779;-71
2022/12/11 12:10:13;;;;;;;;;13.40;12.80;;;;;;;;5247020;28;8949;-70
2022/12/11 12:13:00;;;;;;;;;13.20;13.20;;;;;;;;5247167;28;8817;-71
2022/12/11 12:15:42;;;;;;;;;21.40;19.40;;;;;;;;5248151;28;8841;-70
2022/12/11 12:18:22;;;;;;;;;13.00;13.00;;;;;;;;5229555;28;8779;-71
2022/12/11 12:21:12;;;;;;;;;8.00;7.60;;;;;;;;5230168;28;8911;-71
2022/12/11 12:24:08;;;;;;;;;9.60;9.60;;;;;;;;5246334;28;8880;-71
2022/12/11 12:26:53;;;;;;;;;67.60;56.40;;;;;;;;5245756;28;8814;-71
2022/12/11 12:29:39;;;;;;;;;33.20;29.80;;;;;;;;5236188;28;8790;-71
2022/12/11 12:32:30;;;;;;;;;28.60;28.60;;;;;;;;5213780;28;8803;-72
2022/12/11 12:35:03;;;;;;;;;16.20;15.60;;;;;;;;5249980;28;8788;-70
2022/12/11 12:37:44;;;;;;;;;12.60;12.40;;;;;;;;5267314;28;8800;-70
2022/12/11 12:40:27;;;;;;;;;14.40;14.40;;;;;;;;5233513;28;8816;-72
2022/12/11 12:43:24;;;;;;;;;6.80;6.80;;;;;;;;5250238;28;9535;-69
2022/12/11 12:46:05;;;;;;;;;7.00;7.00;;;;;;;;5266415;28;8889;-71
2022/12/11 12:48:36;;;;;;;;;8.80;8.80;;;;;;;;5234832;28;9700;-70
2022/12/11 12:51:12;;;;;;;;;37.20;37.00;;;;;;;;5245207;28;8843;-69
2022/12/11 12:53:48;;;;;;;;;25.40;24.80;;;;;;;;5246611;28;8779;-69
2022/12/11 12:56:20;;;;;;;;;18.00;18.00;;;;;;;;5235012;28;8876;-70
2022/12/11 12:58:51;;;;;;;;;61.40;51.20;;;;;;;;5260356;28;8785;-69
2022/12/11 13:01:26;;;;;;;;;10.80;10.80;;;;;;;;5228628;28;8803;-69
2022/12/11 13:04:00;;;;;;;;;19.00;16.80;;;;;;;;5233915;28;9490;-70
2022/12/11 13:06:35;;;;;;;;;21.80;21.00;;;;;;;;5232537;28;8780;-70
2022/12/11 13:09:26;;;;;;;;;16.40;16.40;;;;;;;;5245091;28;9563;-69
2022/12/11 13:11:58;;;;;;;;;16.40;16.40;;;;;;;;5245374;28;8850;-71
2022/12/11 13:14:31;;;;;;;;;11.20;11.20;;;;;;;;5228541;28;9518;-69
2022/12/11 13:17:24;;;;;;;;;7.40;7.40;;;;;;;;5229743;28;8783;-71
2022/12/11 13:20:13;;;;;;;;;11.20;11.20;;;;;;;;5245854;28;8929;-69
2022/12/11 13:22:48;;;;;;;;;23.60;23.60;;;;;;;;5228790;28;9542;-70
2022/12/11 13:25:22;;;;;;;;;11.40;11.00;;;;;;;;5230023;28;8783;-70
2022/12/11 13:28:07;;;;;;;;;10.00;10.00;;;;;;;;5229735;28;8991;-69
2022/12/11 13:30:38;;;;;;;;;84.60;67.20;;;;;;;;5282695;28;8848;-70
2022/12/11 13:33:18;;;;;;;;;40.40;38.40;;;;;;;;5270513;28;9504;-69
2022/12/11 13:36:05;;;;;;;;;15.60;14.80;;;;;;;;5235544;28;8790;-70
2022/12/11 13:38:47;;;;;;;;;60.40;51.80;;;;;;;;5233204;28;9564;-70
2022/12/11 13:41:19;;;;;;;;;58.20;45.60;;;;;;;;5243785;28;8825;-71
2022/12/11 13:43:51;;;;;;;;;63.20;52.00;;;;;;;;5246693;28;8811;-70
2022/12/11 13:46:33;;;;;;;;;80.00;60.00;;;;;;;;5234058;28;8929;-70
2022/12/11 13:49:06;;;;;;;;;20.20;15.60;;;;;;;;5213069;28;8802;-73
2022/12/11 13:51:37;;;;;;;;;22.00;19.20;;;;;;;;5244392;28;9634;-69
2022/12/11 13:54:16;;;;;;;;;16.20;15.80;;;;;;;;5213199;28;8826;-70
2022/12/11 13:56:53;;;;;;;;;11.60;11.00;;;;;;;;5228353;28;8815;-70
2022/12/11 13:59:36;;;;;;;;;44.80;42.80;;;;;;;;5248874;28;8883;-70
2022/12/11 14:02:10;;;;;;;;;36.40;36.00;;;;;;;;5246082;28;8807;-71
2022/12/11 14:04:42;;;;;;;;;46.20;44.60;;;;;;;;5264080;28;8804;-72
2022/12/11 14:07:17;;;;;;;;;37.40;34.80;;;;;;;;5216686;28;8836;-70
2022/12/11 14:09:50;;;;;;;;;38.20;37.20;;;;;;;;5258919;28;8815;-71
2022/12/11 14:12:24;;;;;;;;;34.60;30.20;;;;;;;;5238811;28;8867;-72
2022/12/11 14:14:56;;;;;;;;;37.60;36.80;;;;;;;;5248411;28;8919;-71
2022/12/11 14:17:33;;;;;;;;;33.00;31.00;;;;;;;;5231442;28;9564;-70
2022/12/11 14:20:10;;;;;;;;;23.40;21.80;;;;;;;;5232277;28;8795;-71
2022/12/11 14:22:41;;;;;;;;;26.00;24.80;;;;;;;;5249193;28;8795;-71
2022/12/11 14:25:25;;;;;;;;;27.00;27.00;;;;;;;;5248878;28;8796;-70
2022/12/11 14:27:56;;;;;;;;;21.20;21.20;;;;;;;;5240711;28;11448;-70
2022/12/11 14:30:29;;;;;;;;;36.60;35.20;;;;;;;;5243475;28;9605;-69
2022/12/11 14:33:04;;;;;;;;;48.60;43.80;;;;;;;;5251908;28;8808;-70
2022/12/11 14:35:37;;;;;;;;;50.40;43.00;;;;;;;;5260605;28;8963;-68
2022/12/11 14:38:19;;;;;;;;;53.40;46.40;;;;;;;;5264644;28;8824;-70
2022/12/11 14:40:58;;;;;;;;;27.00;27.00;;;;;;;;5266095;28;8832;-69
2022/12/11 14:43:35;;;;;;;;;38.80;36.40;;;;;;;;5267496;28;8808;-71
2022/12/11 14:46:08;;;;;;;;;89.60;68.80;;;;;;;;5258806;28;8838;-70
2022/12/11 14:49:08;;;;;;;;;38.00;37.80;;;;;;;;5241522;28;8843;-70
2022/12/11 14:51:40;;;;;;;;;37.80;36.60;;;;;;;;5234554;28;8964;-70
2022/12/11 14:54:17;;;;;;;;;71.80;54.40;;;;;;;;5246209;28;8807;-72
2022/12/11 14:57:07;;;;;;;;;56.40;48.00;;;;;;;;5251614;28;8928;-72
2022/12/11 14:59:43;;;;;;;;;45.40;41.60;;;;;;;;5246736;28;8912;-70
2022/12/11 15:02:35;;;;;;;;;50.20;47.60;;;;;;;;5250757;28;8808;-71
2022/12/11 15:05:11;;;;;;;;;48.40;43.00;;;;;;;;5242782;28;8876;-70
2022/12/11 15:07:52;;;;;;;;;41.80;41.00;;;;;;;;5229067;28;8808;-70
2022/12/11 15:10:25;;;;;;;;;77.00;62.20;;;;;;;;5247329;28;8853;-70
2022/12/11 15:12:57;;;;;;;;;63.00;51.40;;;;;;;;5246441;28;8809;-70
2022/12/11 15:15:47;;;;;;;;;67.00;53.40;;;;;;;;5265939;28;8793;-70
2022/12/11 15:18:23;;;;;;;;;33.60;31.00;;;;;;;;5245957;28;8810;-70
2022/12/11 15:21:05;;;;;;;;;25.40;24.40;;;;;;;;5247137;28;8786;-70
2022/12/11 15:23:46;;;;;;;;;35.40;35.40;;;;;;;;5232080;28;8880;-70
2022/12/11 15:26:18;;;;;;;;;45.40;40.80;;;;;;;;5259604;28;9632;-71
2022/12/11 15:29:00;;;;;;;;;33.40;33.40;;;;;;;;5229140;28;8913;-69
2022/12/11 15:31:33;;;;;;;;;50.60;46.60;;;;;;;;5228739;28;8779;-72
2022/12/11 15:34:20;;;;;;;;;52.40;47.20;;;;;;;;5252391;28;9527;-72
2022/12/11 15:37:41;;;;;;;;;37.20;35.40;;;;;;;;5250639;28;8787;-70
2022/12/11 15:40:15;;;;;;;;;40.40;39.60;;;;;;;;5228802;28;8787;-71
2022/12/11 15:42:46;;;;;;;;;64.50;56.50;;;;;;;;5249191;28;8788;-71
2022/12/11 15:45:38;;;;;;;;;77.60;63.60;;;;;;;;5265795;28;11491;-71
2022/12/11 15:48:27;;;;;;;;;84.80;66.60;;;;;;;;5266619;28;8797;-69
2022/12/11 15:50:58;;;;;;;;;85.75;68.25;;;;;;;;5218996;28;8846;-70
2022/12/11 15:53:48;;;;;;;;;98.50;80.75;;;;;;;;5255944;28;8795;-70
2022/12/11 15:56:37;;;;;;;;;109.25;86.00;;;;;;;;5265855;28;8862;-68
2022/12/11 15:59:09;;;;;;;;;107.50;83.25;;;;;;;;5245272;28;8891;-68
2022/12/11 16:01:40;;;;;;;;;85.50;71.50;;;;;;;;5230131;28;8889;-71
2022/12/11 16:04:11;;;;;;;;;78.20;63.00;;;;;;;;5263285;28;9575;-67
2022/12/11 16:06:46;;;;;;;;;67.80;56.00;;;;;;;;5232054;28;8818;-70
2022/12/11 16:09:18;;;;;;;;;71.80;60.60;;;;;;;;5260431;28;8953;-71
2022/12/11 16:11:53;;;;;;;;;74.60;58.20;;;;;;;;5233233;28;8948;-72
2022/12/11 16:14:31;;;;;;;;;83.80;66.40;;;;;;;;5231903;28;8787;-70
2022/12/11 16:17:24;;;;;;;;;72.40;60.80;;;;;;;;5232857;28;8779;-73
2022/12/11 16:19:55;;;;;;;;;79.20;66.00;;;;;;;;5246997;28;8783;-70
2022/12/11 16:22:45;;;;;;;;;80.20;65.00;;;;;;;;5247326;28;8787;-71
2022/12/11 16:25:15;;;;;;;;;97.80;70.40;;;;;;;;5246326;28;8811;-70
2022/12/11 16:27:46;;;;;;;;;75.25;60.50;;;;;;;;5229454;28;8837;-69
2022/12/11 16:30:17;;;;;;;;;78.75;62.50;;;;;;;;5229344;28;10172;-72
2022/12/11 16:32:50;;;;;;;;;67.00;58.20;;;;;;;;5230414;28;11544;-70
2022/12/11 16:35:29;;;;;;;;;80.80;66.80;;;;;;;;5251142;28;8799;-74
2022/12/11 16:38:22;;;;;;;;;79.80;65.60;;;;;;;;5240234;28;8958;-70
2022/12/11 16:41:00;;;;;;;;;81.20;67.40;;;;;;;;5220548;28;8798;-70
2022/12/11 16:43:46;;;;;;;;;173.25;137.25;;;;;;;;5271923;28;8841;-71
2022/12/11 16:46:26;;;;;;;;;73.00;61.00;;;;;;;;5237357;28;10290;-70
2022/12/11 16:49:14;;;;;;;;;58.00;49.80;;;;;;;;5235353;28;8787;-72
2022/12/11 16:52:07;;;;;;;;;86.80;67.60;;;;;;;;5253700;28;8861;-70
2022/12/11 16:54:44;;;;;;;;;85.20;66.40;;;;;;;;5237474;28;8779;-71
2022/12/11 16:57:15;;;;;;;;;78.00;63.00;;;;;;;;5275998;28;8805;-70
2022/12/11 16:59:46;;;;;;;;;70.80;59.20;;;;;;;;5252497;28;8799;-72
2022/12/11 17:02:18;;;;;;;;;74.20;60.80;;;;;;;;5250109;28;8821;-71
2022/12/11 17:04:49;;;;;;;;;94.60;73.40;;;;;;;;5213227;28;8821;-71
2022/12/11 17:07:20;;;;;;;;;92.00;72.00;;;;;;;;5228886;28;8824;-71
2022/12/11 17:09:57;;;;;;;;;111.50;91.00;;;;;;;;5231883;28;9576;-71
2022/12/11 17:12:29;;;;;;;;;127.75;102.75;;;;;;;;5215340;28;8818;-70
2022/12/11 17:15:00;;;;;;;;;120.00;110.75;;;;;;;;5213240;28;8795;-70
2022/12/11 17:17:31;;;;;;;;;125.33;110.33;;;;;;;;5245465;28;8787;-70
2022/12/11 17:20:03;;;;;;;;;123.00;106.50;;;;;;;;5228964;28;9359;-70
2022/12/11 17:22:34;;;;;;;;;107.25;83.25;;;;;;;;5228366;28;8775;-69
2022/12/11 17:25:06;;;;;;;;;111.00;83.00;;;;;;;;5228539;28;8797;-70
2022/12/11 17:27:55;;;;;;;;;102.75;80.00;;;;;;;;5244929;28;8794;-70
2022/12/11 17:30:26;;;;;;;;;91.25;72.25;;;;;;;;5246275;28;8827;-70
2022/12/11 17:33:05;;;;;;;;;94.40;70.60;;;;;;;;5237494;28;8821;-71
2022/12/11 17:35:58;;;;;;;;;72.40;59.80;;;;;;;;5235481;28;8771;-69
2022/12/11 17:38:29;;;;;;;;;75.60;60.00;;;;;;;;5266045;28;8852;-69
2022/12/11 17:41:03;;;;;;;;;79.60;64.80;;;;;;;;5232108;28;8776;-70
2022/12/11 17:43:53;;;;;;;;;73.60;62.60;;;;;;;;5251725;28;8776;-71
2022/12/11 17:46:28;;;;;;;;;86.60;68.40;;;;;;;;5248744;28;8772;-70
2022/12/11 17:49:03;;;;;;;;;54.20;44.80;;;;;;;;5273959;28;8849;-74
2022/12/11 17:51:47;;;;;;;;;85.00;64.60;;;;;;;;5267026;28;8854;-72
2022/12/11 17:54:19;;;;;;;;;88.80;69.00;;;;;;;;5211880;28;8907;-71
2022/12/11 17:56:50;;;;;;;;;79.80;66.20;;;;;;;;5223678;28;9522;-71
2022/12/11 17:59:21;;;;;;;;;75.00;61.60;;;;;;;;5245828;28;8827;-70
2022/12/11 18:01:52;;;;;;;;;64.25;55.00;;;;;;;;5251893;28;8812;-70
2022/12/11 18:04:23;;;;;;;;;48.00;45.60;;;;;;;;5248890;28;9809;-70
2022/12/11 18:06:54;;;;;;;;;48.20;43.00;;;;;;;;5248762;28;8792;-70
2022/12/11 18:09:26;;;;;;;;;48.40;43.80;;;;;;;;5265408;28;9518;-70
2022/12/11 18:11:57;;;;;;;;;42.40;41.20;;;;;;;;5265093;28;8836;-69
2022/12/11 18:14:28;;;;;;;;;35.80;32.80;;;;;;;;5265215;28;8875;-70
2022/12/11 18:16:59;;;;;;;;;55.20;46.80;;;;;;;;5263567;28;8807;-70
2022/12/11 18:19:30;;;;;;;;;42.75;41.50;;;;;;;;5232475;28;8806;-70
2022/12/11 18:22:01;;;;;;;;;61.00;52.20;;;;;;;;5244774;28;10064;-70
2022/12/11 18:24:32;;;;;;;;;47.00;45.00;;;;;;;;5247096;28;8807;-70
2022/12/11 18:27:03;;;;;;;;;46.80;44.60;;;;;;;;5252559;28;8827;-69
2022/12/11 18:29:34;;;;;;;;;47.40;44.20;;;;;;;;5258846;28;8838;-70
2022/12/11 18:32:05;;;;;;;;;43.00;42.60;;;;;;;;5244185;28;9526;-69
2022/12/11 18:34:36;;;;;;;;;46.20;43.60;;;;;;;;5241028;28;8814;-70
2022/12/11 18:37:26;;;;;;;;;35.20;34.00;;;;;;;;5242788;28;8818;-70
2022/12/11 18:39:57;;;;;;;;;48.20;45.00;;;;;;;;5227355;28;8802;-69
2022/12/11 18:42:28;;;;;;;;;41.25;41.25;;;;;;;;5243743;28;8799;-70
2022/12/11 18:45:01;;;;;;;;;55.80;47.60;;;;;;;;5233823;28;10661;-69
2022/12/11 18:47:33;;;;;;;;;31.40;29.20;;;;;;;;5246647;28;8802;-71
2022/12/11 18:50:09;;;;;;;;;38.80;36.20;;;;;;;;5244447;28;9687;-71
2022/12/11 18:53:02;;;;;;;;;36.40;33.80;;;;;;;;5230926;28;8811;-70
2022/12/11 18:55:34;;;;;;;;;37.20;34.00;;;;;;;;5260375;28;8821;-71
2022/12/11 18:58:10;;;;;;;;;32.60;32.60;;;;;;;;5227906;28;8823;-71
2022/12/11 19:00:41;;;;;;;;;28.00;28.00;;;;;;;;5229897;28;8918;-70
2022/12/11 19:03:12;;;;;;;;;35.60;34.00;;;;;;;;5230785;28;8806;-70
2022/12/11 19:05:49;;;;;;;;;23.75;22.50;;;;;;;;5246952;28;8802;-71
2022/12/11 19:08:20;;;;;;;;;30.00;24.60;;;;;;;;5232359;28;11487;-69
2022/12/11 19:10:51;;;;;;;;;17.60;16.00;;;;;;;;5251757;28;8812;-70
2022/12/11 19:13:22;;;;;;;;;21.40;21.20;;;;;;;;5268892;28;8815;-70
2022/12/11 19:15:54;;;;;;;;;22.50;22.50;;;;;;;;5268526;28;9475;-70
2022/12/11 19:18:25;;;;;;;;;18.40;18.40;;;;;;;;5252052;28;12179;-70
2022/12/11 19:21:16;;;;;;;;;24.60;24.60;;;;;;;;5255166;28;9565;-70
2022/12/11 19:24:06;;;;;;;;;28.00;25.00;;;;;;;;5269907;28;8769;-69
2022/12/11 19:26:37;;;;;;;;;12.60;10.80;;;;;;;;5252040;28;8785;-71
2022/12/11 19:29:08;;;;;;;;;17.00;17.00;;;;;;;;5268828;28;8756;-69
2022/12/11 19:31:39;;;;;;;;;16.60;16.60;;;;;;;;5268247;28;11519;-70
2022/12/11 19:34:10;;;;;;;;;15.50;15.50;;;;;;;;5265095;28;8807;-77
2022/12/11 19:36:41;;;;;;;;;36.50;35.50;;;;;;;;5242057;28;8819;-77
2022/12/11 19:39:13;;;;;;;;;24.60;23.40;;;;;;;;5257300;28;11452;-76
2022/12/11 19:41:47;;;;;;;;;27.60;27.60;;;;;;;;5239305;28;8784;-76
2022/12/11 19:44:36;;;;;;;;;26.20;24.80;;;;;;;;5253882;28;8780;-75
2022/12/11 19:47:07;;;;;;;;;23.60;22.80;;;;;;;;5269487;28;8799;-74
2022/12/11 19:49:38;;;;;;;;;24.00;24.00;;;;;;;;5251375;28;8776;-77
2022/12/11 19:52:10;;;;;;;;;28.80;28.40;;;;;;;;5251739;28;11517;-75
2022/12/11 19:54:41;;;;;;;;;25.25;21.50;;;;;;;;5267870;28;8780;-74
2022/12/11 19:57:12;;;;;;;;;21.75;18.75;;;;;;;;5267434;28;11549;-74
2022/12/11 19:59:43;;;;;;;;;27.25;25.25;;;;;;;;5268821;28;11055;-74
2022/12/11 20:02:14;;;;;;;;;25.80;25.80;;;;;;;;5230941;28;8791;-76
2022/12/11 20:04:45;;;;;;;;;24.25;19.50;;;;;;;;5231182;28;9519;-75
2022/12/11 20:07:16;;;;;;;;;24.00;22.50;;;;;;;;5259134;28;11076;-73
2022/12/11 20:09:47;;;;;;;;;36.60;34.60;;;;;;;;5246424;28;11503;-73
2022/12/11 20:12:19;;;;;;;;;26.80;25.80;;;;;;;;5246798;28;9506;-73
2022/12/11 20:15:10;;;;;;;;;34.60;34.60;;;;;;;;5247075;28;8791;-73
2022/12/11 20:17:43;;;;;;;;;33.40;33.40;;;;;;;;5213450;28;8822;-72
2022/12/11 20:20:14;;;;;;;;;40.40;39.00;;;;;;;;5262398;28;8793;-73
2022/12/11 20:22:45;;;;;;;;;47.75;44.25;;;;;;;;5245641;28;8787;-75
2022/12/11 20:25:16;;;;;;;;;33.20;33.20;;;;;;;;5229720;28;11058;-72
2022/12/11 20:27:47;;;;;;;;;23.00;23.00;;;;;;;;5246479;28;8775;-73
2022/12/11 20:30:18;;;;;;;;;30.75;28.25;;;;;;;;5229897;28;8826;-72
2022/12/11 20:32:50;;;;;;;;;39.00;36.40;;;;;;;;5229947;28;11535;-74
2022/12/11 20:35:21;;;;;;;;;17.60;17.20;;;;;;;;5247561;28;8791;-76
2022/12/11 20:37:52;;;;;;;;;26.75;25.50;;;;;;;;5247217;28;8806;-76
2022/12/11 20:40:24;;;;;;;;;37.00;36.80;;;;;;;;5245986;28;9958;-76
2022/12/11 20:42:55;;;;;;;;;34.00;32.20;;;;;;;;5233186;28;8816;-76
2022/12/11 20:45:26;;;;;;;;;31.50;31.50;;;;;;;;5249937;28;8788;-76
2022/12/11 20:48:15;;;;;;;;;27.20;25.80;;;;;;;;5267103;28;8769;-74
2022/12/11 20:51:06;;;;;;;;;29.60;28.60;;;;;;;;5267812;28;8831;-72
2022/12/11 20:53:58;;;;;;;;;38.40;37.00;;;;;;;;5268396;28;8795;-74
2022/12/11 20:56:29;;;;;;;;;45.20;42.00;;;;;;;;5267764;28;8805;-74
2022/12/11 20:59:00;;;;;;;;;40.00;37.60;;;;;;;;5266708;28;8773;-73
2022/12/11 21:01:31;;;;;;;;;39.75;38.75;;;;;;;;5266234;28;8796;-73
2022/12/11 21:04:03;;;;;;;;;36.40;34.40;;;;;;;;5235052;28;11566;-73
2022/12/11 21:06:35;;;;;;;;;40.00;39.20;;;;;;;;5245585;28;8775;-74
2022/12/11 21:09:08;;;;;;;;;44.20;42.20;;;;;;;;5229139;28;8779;-72
2022/12/11 21:11:39;;;;;;;;;46.00;43.60;;;;;;;;5245226;28;8814;-72
2022/12/11 21:14:10;;;;;;;;;41.80;37.80;;;;;;;;5245982;28;8802;-72
2022/12/11 21:16:41;;;;;;;;;41.20;37.20;;;;;;;;5246382;28;8767;-73